sensor_id;sensor_type;location;lat;lon;timestamp;temperature;humidity
16404;DHT22;8311;50.158;8.642;2024-03-23T00:53:55;21.20;49.00
16404;DHT22;8311;50.158;8.642;2024-03-23T00:56:47;21.20;49.00
16404;DHT22;8311;50.158;8.642;2024-03-23T00:59:39;21.30;49.00
16404;DHT22;8311;50.158;8.642;2024-03-23T01:02:31;21.20;48.90
16404;DHT22;8311;50.158;8.642;2024-03-23T01:05:22;21.20;48.90
16404;DHT22;8311;50.158;8.642;2024-03-23T01:08:15;21.20;48.90
16404;DHT22;8311;50.158;8.642;2024-03-23T01:11:06;21.20;48.90
16404;DHT22;8311;50.158;8.642;2024-03-23T01:13:59;21.30;49.00
16404;DHT22;8311;50.158;8.642;2024-03-23T01:16:50;21.30;48.90
16404;DHT22;8311;50.158;8.642;2024-03-23T01:19:42;21.30;48.90
16404;DHT22;8311;50.158;8.642;2024-03-23T01:22:33;21.30;48.90
16404;DHT22;8311;50.158;8.642;2024-03-23T01:25:28;21.20;48.80
16404;DHT22;8311;50.158;8.642;2024-03-23T01:28:19;21.20;48.80
16404;DHT22;8311;50.158;8.642;2024-03-23T01:31:11;21.30;48.90
16404;DHT22;8311;50.158;8.642;2024-03-23T01:34:01;21.30;48.80
16404;DHT22;8311;50.158;8.642;2024-03-23T01:36:54;21.30;48.80
16404;DHT22;8311;50.158;8.642;2024-03-23T01:39:45;21.30;48.80
16404;DHT22;8311;50.158;8.642;2024-03-23T01:42:39;21.30;48.80
16404;DHT22;8311;50.158;8.642;2024-03-23T01:45:31;21.30;48.80
16404;DHT22;8311;50.158;8.642;2024-03-23T01:48:24;21.30;48.80
16404;DHT22;8311;50.158;8.642;2024-03-23T01:51:15;21.20;48.80
16404;DHT22;8311;50.158;8.642;2024-03-23T01:54:07;21.30;48.80
16404;DHT22;8311;50.158;8.642;2024-03-23T01:57:00;21.30;48.80
16404;DHT22;8311;50.158;8.642;2024-03-23T01:59:52;21.30;48.80
16404;DHT22;8311;50.158;8.642;2024-03-23T02:02:45;21.30;48.70
16404;DHT22;8311;50.158;8.642;2024-03-23T02:05:37;21.30;48.80
16404;DHT22;8311;50.158;8.642;2024-03-23T02:08:30;21.30;48.80
16404;DHT22;8311;50.158;8.642;2024-03-23T02:11:22;21.30;48.70
16404;DHT22;8311;50.158;8.642;2024-03-23T02:14:15;21.30;48.70
16404;DHT22;8311;50.158;8.642;2024-03-23T02:17:08;21.30;48.70
16404;DHT22;8311;50.158;8.642;2024-03-23T02:19:59;21.30;48.70
16404;DHT22;8311;50.158;8.642;2024-03-23T02:22:53;21.30;48.70
16404;DHT22;8311;50.158;8.642;2024-03-23T02:25:46;21.30;48.70
16404;DHT22;8311;50.158;8.642;2024-03-23T02:28:37;21.30;48.70
16404;DHT22;8311;50.158;8.642;2024-03-23T02:31:28;21.30;48.70
16404;DHT22;8311;50.158;8.642;2024-03-23T02:34:19;21.30;48.60
16404;DHT22;8311;50.158;8.642;2024-03-23T02:37:12;21.30;48.60
16404;DHT22;8311;50.158;8.642;2024-03-23T02:40:05;21.30;48.60
16404;DHT22;8311;50.158;8.642;2024-03-23T02:42:58;21.30;48.60
16404;DHT22;8311;50.158;8.642;2024-03-23T02:45:50;21.30;48.60
16404;DHT22;8311;50.158;8.642;2024-03-23T02:48:42;21.30;48.60
16404;DHT22;8311;50.158;8.642;2024-03-23T02:51:33;21.30;48.60
16404;DHT22;8311;50.158;8.642;2024-03-23T02:54:25;21.30;48.60
16404;DHT22;8311;50.158;8.642;2024-03-23T02:57:18;21.30;48.60
16404;DHT22;8311;50.158;8.642;2024-03-23T03:00:10;21.30;48.60
16404;DHT22;8311;50.158;8.642;2024-03-23T03:03:04;21.30;48.60
16404;DHT22;8311;50.158;8.642;2024-03-23T03:05:57;21.30;48.60
16404;DHT22;8311;50.158;8.642;2024-03-23T03:08:49;21.30;48.50
16404;DHT22;8311;50.158;8.642;2024-03-23T03:11:41;21.30;48.60
16404;DHT22;8311;50.158;8.642;2024-03-23T03:14:33;21.30;48.50
16404;DHT22;8311;50.158;8.642;2024-03-23T03:17:25;21.30;48.50
16404;DHT22;8311;50.158;8.642;2024-03-23T03:20:17;21.30;48.50
16404;DHT22;8311;50.158;8.642;2024-03-23T03:23:08;21.30;48.50
16404;DHT22;8311;50.158;8.642;2024-03-23T03:26:01;21.30;48.50
16404;DHT22;8311;50.158;8.642;2024-03-23T03:28:52;21.30;48.50
16404;DHT22;8311;50.158;8.642;2024-03-23T03:31:46;21.30;49.10
16404;DHT22;8311;50.158;8.642;2024-03-23T03:34:38;21.30;48.50
16404;DHT22;8311;50.158;8.642;2024-03-23T03:37:30;21.30;48.50
16404;DHT22;8311;50.158;8.642;2024-03-23T03:40:21;21.30;48.50
16404;DHT22;8311;50.158;8.642;2024-03-23T03:43:14;21.30;48.50
16404;DHT22;8311;50.158;8.642;2024-03-23T03:46:05;21.30;48.50
16404;DHT22;8311;50.158;8.642;2024-03-23T03:49:00;21.30;48.40
16404;DHT22;8311;50.158;8.642;2024-03-23T03:51:52;21.30;48.50
16404;DHT22;8311;50.158;8.642;2024-03-23T03:54:44;21.30;48.40
16404;DHT22;8311;50.158;8.642;2024-03-23T03:57:35;21.30;48.40
16404;DHT22;8311;50.158;8.642;2024-03-23T04:00:28;21.30;48.40
16404;DHT22;8311;50.158;8.642;2024-03-23T04:03:19;21.30;48.40
16404;DHT22;8311;50.158;8.642;2024-03-23T04:06:18;21.30;48.40
16404;DHT22;8311;50.158;8.642;2024-03-23T04:09:10;21.30;48.40
16404;DHT22;8311;50.158;8.642;2024-03-23T04:12:02;21.30;48.40
16404;DHT22;8311;50.158;8.642;2024-03-23T04:14:52;21.30;48.40
16404;DHT22;8311;50.158;8.642;2024-03-23T04:17:45;21.30;48.40
16404;DHT22;8311;50.158;8.642;2024-03-23T04:20:36;21.30;48.40
16404;DHT22;8311;50.158;8.642;2024-03-23T04:23:29;21.30;48.40
16404;DHT22;8311;50.158;8.642;2024-03-23T04:26:20;21.30;48.40
16404;DHT22;8311;50.158;8.642;2024-03-23T04:29:13;21.30;48.40
16404;DHT22;8311;50.158;8.642;2024-03-23T04:32:04;21.30;48.40
16404;DHT22;8311;50.158;8.642;2024-03-23T04:34:57;21.30;48.40
16404;DHT22;8311;50.158;8.642;2024-03-23T04:37:48;21.30;48.40
16404;DHT22;8311;50.158;8.642;2024-03-23T04:40:41;21.30;48.40
16404;DHT22;8311;50.158;8.642;2024-03-23T04:43:33;21.30;48.40
16404;DHT22;8311;50.158;8.642;2024-03-23T04:46:26;21.30;48.40
16404;DHT22;8311;50.158;8.642;2024-03-23T04:49:19;21.30;48.40
16404;DHT22;8311;50.158;8.642;2024-03-23T04:52:11;21.30;48.40
16404;DHT22;8311;50.158;8.642;2024-03-23T04:55:03;21.30;48.40
16404;DHT22;8311;50.158;8.642;2024-03-23T04:57:57;21.30;48.30
16404;DHT22;8311;50.158;8.642;2024-03-23T05:00:53;21.30;48.30
16404;DHT22;8311;50.158;8.642;2024-03-23T05:03:45;21.30;48.30
16404;DHT22;8311;50.158;8.642;2024-03-23T05:06:37;21.30;48.40
16404;DHT22;8311;50.158;8.642;2024-03-23T05:09:28;21.30;48.30
16404;DHT22;8311;50.158;8.642;2024-03-23T05:12:21;21.30;48.30
16404;DHT22;8311;50.158;8.642;2024-03-23T05:15:16;21.30;48.30
16404;DHT22;8311;50.158;8.642;2024-03-23T05:18:08;21.30;48.30
16404;DHT22;8311;50.158;8.642;2024-03-23T05:21:00;21.30;48.30
16404;DHT22;8311;50.158;8.642;2024-03-23T05:23:53;21.30;48.30
16404;DHT22;8311;50.158;8.642;2024-03-23T05:26:46;21.30;48.30
16404;DHT22;8311;50.158;8.642;2024-03-23T05:29:36;21.30;48.30
16404;DHT22;8311;50.158;8.642;2024-03-23T05:32:30;21.30;48.30
16404;DHT22;8311;50.158;8.642;2024-03-23T05:35:21;21.30;48.40
16404;DHT22;8311;50.158;8.642;2024-03-23T05:38:13;21.30;48.30
16404;DHT22;8311;50.158;8.642;2024-03-23T05:41:04;21.30;48.30
16404;DHT22;8311;50.158;8.642;2024-03-23T05:43:56;21.30;48.40
16404;DHT22;8311;50.158;8.642;2024-03-23T05:46:48;21.30;48.40
16404;DHT22;8311;50.158;8.642;2024-03-23T05:49:42;21.30;48.40
16404;DHT22;8311;50.158;8.642;2024-03-23T05:52:33;21.30;48.40
16404;DHT22;8311;50.158;8.642;2024-03-23T05:55:25;21.30;48.30
16404;DHT22;8311;50.158;8.642;2024-03-23T05:58:17;21.30;48.30
16404;DHT22;8311;50.158;8.642;2024-03-23T06:01:09;21.30;48.30
16404;DHT22;8311;50.158;8.642;2024-03-23T06:04:00;21.30;48.70
16404;DHT22;8311;50.158;8.642;2024-03-23T06:06:53;21.30;48.60
16404;DHT22;8311;50.158;8.642;2024-03-23T06:09:44;21.30;48.40
16404;DHT22;8311;50.158;8.642;2024-03-23T06:12:36;21.30;48.40
16404;DHT22;8311;50.158;8.642;2024-03-23T06:15:28;21.30;48.40
16404;DHT22;8311;50.158;8.642;2024-03-23T06:18:19;21.30;48.40
16404;DHT22;8311;50.158;8.642;2024-03-23T06:21:13;21.30;48.40
16404;DHT22;8311;50.158;8.642;2024-03-23T06:24:06;21.30;48.40
16404;DHT22;8311;50.158;8.642;2024-03-23T06:26:59;21.30;48.40
16404;DHT22;8311;50.158;8.642;2024-03-23T06:29:50;21.30;48.40
16404;DHT22;8311;50.158;8.642;2024-03-23T06:32:42;21.30;48.50
16404;DHT22;8311;50.158;8.642;2024-03-23T06:35:33;21.30;48.60
16404;DHT22;8311;50.158;8.642;2024-03-23T06:38:25;21.30;48.60
16404;DHT22;8311;50.158;8.642;2024-03-23T06:41:19;21.30;48.60
16404;DHT22;8311;50.158;8.642;2024-03-23T06:44:11;21.30;48.60
16404;DHT22;8311;50.158;8.642;2024-03-23T06:47:02;21.30;48.70
16404;DHT22;8311;50.158;8.642;2024-03-23T06:49:54;21.30;48.70
16404;DHT22;8311;50.158;8.642;2024-03-23T06:52:45;21.30;48.70
16404;DHT22;8311;50.158;8.642;2024-03-23T06:55:37;21.40;48.70
16404;DHT22;8311;50.158;8.642;2024-03-23T06:58:31;21.30;48.70
16404;DHT22;8311;50.158;8.642;2024-03-23T07:01:24;21.30;48.60
16404;DHT22;8311;50.158;8.642;2024-03-23T07:04:16;21.30;48.60
16404;DHT22;8311;50.158;8.642;2024-03-23T07:07:09;21.30;48.70
16404;DHT22;8311;50.158;8.642;2024-03-23T07:10:00;21.30;48.70
16404;DHT22;8311;50.158;8.642;2024-03-23T07:12:53;21.30;48.70
16404;DHT22;8311;50.158;8.642;2024-03-23T07:15:51;21.30;48.70
16404;DHT22;8311;50.158;8.642;2024-03-23T07:18:43;21.30;48.70
16404;DHT22;8311;50.158;8.642;2024-03-23T07:21:35;21.30;48.80
16404;DHT22;8311;50.158;8.642;2024-03-23T07:24:26;21.30;49.10
16404;DHT22;8311;50.158;8.642;2024-03-23T07:27:18;21.30;49.40
16404;DHT22;8311;50.158;8.642;2024-03-23T07:30:09;21.30;49.40
16404;DHT22;8311;50.158;8.642;2024-03-23T07:33:02;21.30;49.50
16404;DHT22;8311;50.158;8.642;2024-03-23T07:35:55;21.30;49.50
16404;DHT22;8311;50.158;8.642;2024-03-23T07:38:46;21.30;49.50
16404;DHT22;8311;50.158;8.642;2024-03-23T07:41:38;21.30;49.50
16404;DHT22;8311;50.158;8.642;2024-03-23T07:44:30;21.30;49.50
16404;DHT22;8311;50.158;8.642;2024-03-23T07:47:21;21.30;49.60
16404;DHT22;8311;50.158;8.642;2024-03-23T07:50:16;21.30;50.70
16404;DHT22;8311;50.158;8.642;2024-03-23T07:53:07;21.30;50.30
16404;DHT22;8311;50.158;8.642;2024-03-23T07:56:00;21.30;50.20
16404;DHT22;8311;50.158;8.642;2024-03-23T07:58:53;21.30;49.80
16404;DHT22;8311;50.158;8.642;2024-03-23T08:01:44;21.30;49.50
16404;DHT22;8311;50.158;8.642;2024-03-23T08:04:35;21.30;49.40
16404;DHT22;8311;50.158;8.642;2024-03-23T08:07:28;21.30;49.30
16404;DHT22;8311;50.158;8.642;2024-03-23T08:10:21;21.30;49.20
16404;DHT22;8311;50.158;8.642;2024-03-23T08:13:12;21.40;49.30
16404;DHT22;8311;50.158;8.642;2024-03-23T08:16:04;21.40;49.10
16404;DHT22;8311;50.158;8.642;2024-03-23T08:18:57;21.40;49.00
16404;DHT22;8311;50.158;8.642;2024-03-23T08:21:49;21.40;49.00
16404;DHT22;8311;50.158;8.642;2024-03-23T08:24:44;21.40;49.60
16404;DHT22;8311;50.158;8.642;2024-03-23T08:27:35;21.40;49.60
16404;DHT22;8311;50.158;8.642;2024-03-23T08:30:28;21.40;51.00
16404;DHT22;8311;50.158;8.642;2024-03-23T08:33:20;21.40;50.20
16404;DHT22;8311;50.158;8.642;2024-03-23T08:36:11;21.40;50.30
16404;DHT22;8311;50.158;8.642;2024-03-23T08:39:05;21.40;50.20
16404;DHT22;8311;50.158;8.642;2024-03-23T08:41:58;21.40;49.90
16404;DHT22;8311;50.158;8.642;2024-03-23T08:44:51;21.40;49.70
16404;DHT22;8311;50.158;8.642;2024-03-23T08:47:42;21.40;49.80
16404;DHT22;8311;50.158;8.642;2024-03-23T08:50:34;21.50;50.40
16404;DHT22;8311;50.158;8.642;2024-03-23T08:53:27;21.50;49.90
16404;DHT22;8311;50.158;8.642;2024-03-23T08:56:19;21.40;50.00
16404;DHT22;8311;50.158;8.642;2024-03-23T08:59:11;21.50;50.00
16404;DHT22;8311;50.158;8.642;2024-03-23T09:02:03;21.50;50.10
16404;DHT22;8311;50.158;8.642;2024-03-23T09:04:55;21.50;54.10
16404;DHT22;8311;50.158;8.642;2024-03-23T09:07:47;21.50;51.60
16404;DHT22;8311;50.158;8.642;2024-03-23T09:10:39;21.50;50.70
16404;DHT22;8311;50.158;8.642;2024-03-23T09:13:31;21.50;50.60
16404;DHT22;8311;50.158;8.642;2024-03-23T09:16:24;21.60;50.60
16404;DHT22;8311;50.158;8.642;2024-03-23T09:19:17;21.50;50.60
16404;DHT22;8311;50.158;8.642;2024-03-23T09:22:08;21.60;50.60
16404;DHT22;8311;50.158;8.642;2024-03-23T09:25:00;21.60;50.70
16404;DHT22;8311;50.158;8.642;2024-03-23T09:27:52;21.70;50.70
16404;DHT22;8311;50.158;8.642;2024-03-23T09:30:43;21.70;50.70
16404;DHT22;8311;50.158;8.642;2024-03-23T09:33:36;21.80;50.70
16404;DHT22;8311;50.158;8.642;2024-03-23T09:36:27;21.80;50.70
16404;DHT22;8311;50.158;8.642;2024-03-23T09:39:19;21.80;51.40
16404;DHT22;8311;50.158;8.642;2024-03-23T09:42:10;21.90;50.80
16404;DHT22;8311;50.158;8.642;2024-03-23T09:45:02;21.90;50.80
16404;DHT22;8311;50.158;8.642;2024-03-23T09:47:56;21.90;50.80
16404;DHT22;8311;50.158;8.642;2024-03-23T09:50:49;21.90;48.50
16404;DHT22;8311;50.158;8.642;2024-03-23T09:53:41;21.80;45.70
16404;DHT22;8311;50.158;8.642;2024-03-23T09:56:33;21.30;39.10
16404;DHT22;8311;50.158;8.642;2024-03-23T09:59:24;21.00;37.10
16404;DHT22;8311;50.158;8.642;2024-03-23T10:02:17;20.60;36.00
16404;DHT22;8311;50.158;8.642;2024-03-23T10:05:20;20.70;37.70
16404;DHT22;8311;50.158;8.642;2024-03-23T10:08:19;20.90;37.90
16404;DHT22;8311;50.158;8.642;2024-03-23T10:11:15;21.10;36.80
16404;DHT22;8311;50.158;8.642;2024-03-23T10:14:08;21.00;38.60
16404;DHT22;8311;50.158;8.642;2024-03-23T10:17:12;21.30;38.30
16404;DHT22;8311;50.158;8.642;2024-03-23T10:20:10;21.40;38.80
16404;DHT22;8311;50.158;8.642;2024-03-23T10:23:01;21.50;39.60
16404;DHT22;8311;50.158;8.642;2024-03-23T10:25:54;21.70;40.20
16404;DHT22;8311;50.158;8.642;2024-03-23T10:28:53;21.80;40.80
16404;DHT22;8311;50.158;8.642;2024-03-23T10:31:47;21.80;41.20
16404;DHT22;8311;50.158;8.642;2024-03-23T10:34:38;21.80;41.50
16404;DHT22;8311;50.158;8.642;2024-03-23T10:37:31;21.90;41.80
16404;DHT22;8311;50.158;8.642;2024-03-23T10:40:23;21.90;42.20
16404;DHT22;8311;50.158;8.642;2024-03-23T10:43:18;21.80;42.30
16404;DHT22;8311;50.158;8.642;2024-03-23T10:46:10;21.80;42.70
16404;DHT22;8311;50.158;8.642;2024-03-23T10:49:02;21.80;42.80
16404;DHT22;8311;50.158;8.642;2024-03-23T10:51:57;21.80;42.90
16404;DHT22;8311;50.158;8.642;2024-03-23T10:54:51;21.80;43.20
16404;DHT22;8311;50.158;8.642;2024-03-23T10:57:45;21.70;43.40
16404;DHT22;8311;50.158;8.642;2024-03-23T11:00:40;21.70;43.50
16404;DHT22;8311;50.158;8.642;2024-03-23T11:03:33;21.70;43.70
16404;DHT22;8311;50.158;8.642;2024-03-23T11:06:35;21.60;43.80
16404;DHT22;8311;50.158;8.642;2024-03-23T11:09:41;21.60;44.00
16404;DHT22;8311;50.158;8.642;2024-03-23T11:12:35;21.60;44.70
16404;DHT22;8311;50.158;8.642;2024-03-23T11:15:27;21.60;44.10
16404;DHT22;8311;50.158;8.642;2024-03-23T11:18:21;21.60;44.30
16404;DHT22;8311;50.158;8.642;2024-03-23T11:21:52;21.60;44.40
16404;DHT22;8311;50.158;8.642;2024-03-23T11:24:50;21.60;44.50
16404;DHT22;8311;50.158;8.642;2024-03-23T11:27:42;21.60;44.60
16404;DHT22;8311;50.158;8.642;2024-03-23T11:30:34;21.60;44.70
16404;DHT22;8311;50.158;8.642;2024-03-23T11:33:26;21.60;44.70
16404;DHT22;8311;50.158;8.642;2024-03-23T11:36:19;21.60;44.80
16404;DHT22;8311;50.158;8.642;2024-03-23T11:39:13;21.60;44.90
16404;DHT22;8311;50.158;8.642;2024-03-23T11:42:07;21.60;45.00
16404;DHT22;8311;50.158;8.642;2024-03-23T11:44:59;21.50;45.00
16404;DHT22;8311;50.158;8.642;2024-03-23T11:48:03;21.60;45.10
16404;DHT22;8311;50.158;8.642;2024-03-23T11:50:58;21.60;45.10
16404;DHT22;8311;50.158;8.642;2024-03-23T11:53:49;21.60;45.20
16404;DHT22;8311;50.158;8.642;2024-03-23T11:56:53;21.60;45.30
16404;DHT22;8311;50.158;8.642;2024-03-23T11:59:44;21.60;45.30
16404;DHT22;8311;50.158;8.642;2024-03-23T12:02:36;21.70;45.40
16404;DHT22;8311;50.158;8.642;2024-03-23T12:05:31;21.70;45.40
16404;DHT22;8311;50.158;8.642;2024-03-23T12:08:24;21.80;45.40
16404;DHT22;8311;50.158;8.642;2024-03-23T12:11:17;21.90;45.40
16404;DHT22;8311;50.158;8.642;2024-03-23T12:14:08;21.90;45.40
16404;DHT22;8311;50.158;8.642;2024-03-23T12:17:10;22.00;45.40
16404;DHT22;8311;50.158;8.642;2024-03-23T12:20:03;22.00;45.30
16404;DHT22;8311;50.158;8.642;2024-03-23T12:23:10;22.10;45.30
16404;DHT22;8311;50.158;8.642;2024-03-23T12:26:04;22.10;45.20
16404;DHT22;8311;50.158;8.642;2024-03-23T12:28:55;22.20;45.20
16404;DHT22;8311;50.158;8.642;2024-03-23T12:31:47;22.20;45.20
16404;DHT22;8311;50.158;8.642;2024-03-23T12:34:38;22.20;45.20
16404;DHT22;8311;50.158;8.642;2024-03-23T12:37:30;22.30;45.20
16404;DHT22;8311;50.158;8.642;2024-03-23T12:40:23;22.30;45.10
16404;DHT22;8311;50.158;8.642;2024-03-23T12:43:16;22.30;45.10
16404;DHT22;8311;50.158;8.642;2024-03-23T12:46:08;22.30;45.10
16404;DHT22;8311;50.158;8.642;2024-03-23T12:49:02;22.30;45.10
16404;DHT22;8311;50.158;8.642;2024-03-23T12:51:54;22.30;45.20
16404;DHT22;8311;50.158;8.642;2024-03-23T12:54:46;22.20;45.20
16404;DHT22;8311;50.158;8.642;2024-03-23T12:57:39;22.30;45.30
16404;DHT22;8311;50.158;8.642;2024-03-23T13:00:31;22.20;45.30
16404;DHT22;8311;50.158;8.642;2024-03-23T13:03:22;22.20;46.00
16404;DHT22;8311;50.158;8.642;2024-03-23T13:06:16;22.20;45.40
16404;DHT22;8311;50.158;8.642;2024-03-23T13:09:06;22.20;46.00
16404;DHT22;8311;50.158;8.642;2024-03-23T13:11:59;22.10;45.50
16404;DHT22;8311;50.158;8.642;2024-03-23T13:14:52;22.10;45.60
16404;DHT22;8311;50.158;8.642;2024-03-23T13:17:44;22.10;45.70
16404;DHT22;8311;50.158;8.642;2024-03-23T13:20:35;22.10;45.70
16404;DHT22;8311;50.158;8.642;2024-03-23T13:23:27;22.00;45.70
16404;DHT22;8311;50.158;8.642;2024-03-23T13:26:18;22.00;45.80
16404;DHT22;8311;50.158;8.642;2024-03-23T13:29:10;22.00;45.80
16404;DHT22;8311;50.158;8.642;2024-03-23T13:32:04;21.90;45.80
16404;DHT22;8311;50.158;8.642;2024-03-23T13:34:58;21.90;45.80
16404;DHT22;8311;50.158;8.642;2024-03-23T13:37:48;21.90;45.90
16404;DHT22;8311;50.158;8.642;2024-03-23T13:40:50;21.90;45.90
16404;DHT22;8311;50.158;8.642;2024-03-23T13:43:41;21.90;45.90
16404;DHT22;8311;50.158;8.642;2024-03-23T13:46:33;21.90;45.80
16404;DHT22;8311;50.158;8.642;2024-03-23T13:49:27;21.90;45.90
16404;DHT22;8311;50.158;8.642;2024-03-23T13:52:20;21.90;45.90
16404;DHT22;8311;50.158;8.642;2024-03-23T13:55:13;21.90;45.90
16404;DHT22;8311;50.158;8.642;2024-03-23T13:58:06;21.90;46.00
16404;DHT22;8311;50.158;8.642;2024-03-23T14:00:58;21.90;46.00
16404;DHT22;8311;50.158;8.642;2024-03-23T14:03:51;21.90;46.00
16404;DHT22;8311;50.158;8.642;2024-03-23T14:06:43;21.90;46.00
16404;DHT22;8311;50.158;8.642;2024-03-23T14:09:37;21.90;46.00
16404;DHT22;8311;50.158;8.642;2024-03-23T14:12:27;21.90;46.00
16404;DHT22;8311;50.158;8.642;2024-03-23T14:15:20;21.90;46.00
16404;DHT22;8311;50.158;8.642;2024-03-23T14:18:10;21.80;46.00
16404;DHT22;8311;50.158;8.642;2024-03-23T14:21:05;21.80;46.00
16404;DHT22;8311;50.158;8.642;2024-03-23T14:23:59;21.80;46.10
16404;DHT22;8311;50.158;8.642;2024-03-23T14:26:51;21.80;46.10
16404;DHT22;8311;50.158;8.642;2024-03-23T14:29:45;21.80;46.10
16404;DHT22;8311;50.158;8.642;2024-03-23T14:32:37;21.80;46.20
16404;DHT22;8311;50.158;8.642;2024-03-23T14:35:28;21.80;46.20
16404;DHT22;8311;50.158;8.642;2024-03-23T14:38:21;21.70;46.20
16404;DHT22;8311;50.158;8.642;2024-03-23T14:41:14;21.80;46.20
16404;DHT22;8311;50.158;8.642;2024-03-23T14:44:05;21.80;46.30
16404;DHT22;8311;50.158;8.642;2024-03-23T14:46:56;21.70;46.30
16404;DHT22;8311;50.158;8.642;2024-03-23T14:49:48;21.70;46.30
16404;DHT22;8311;50.158;8.642;2024-03-23T14:52:41;21.70;46.40
16404;DHT22;8311;50.158;8.642;2024-03-23T14:55:34;21.70;46.40
16404;DHT22;8311;50.158;8.642;2024-03-23T14:58:27;21.70;46.40
16404;DHT22;8311;50.158;8.642;2024-03-23T15:01:19;21.70;46.40
16404;DHT22;8311;50.158;8.642;2024-03-23T15:04:11;21.70;46.50
16404;DHT22;8311;50.158;8.642;2024-03-23T15:07:04;21.70;46.50
16404;DHT22;8311;50.158;8.642;2024-03-23T15:09:56;21.60;46.50
16404;DHT22;8311;50.158;8.642;2024-03-23T15:12:47;21.70;46.60
16404;DHT22;8311;50.158;8.642;2024-03-23T15:15:41;21.70;46.60
16404;DHT22;8311;50.158;8.642;2024-03-23T15:18:34;21.70;46.50
16404;DHT22;8311;50.158;8.642;2024-03-23T15:21:26;21.70;46.60
16404;DHT22;8311;50.158;8.642;2024-03-23T15:24:17;21.70;46.60
16404;DHT22;8311;50.158;8.642;2024-03-23T15:27:10;21.60;46.60
16404;DHT22;8311;50.158;8.642;2024-03-23T15:30:01;21.60;46.60
16404;DHT22;8311;50.158;8.642;2024-03-23T15:32:55;21.60;46.60
16404;DHT22;8311;50.158;8.642;2024-03-23T15:35:47;21.60;46.60
16404;DHT22;8311;50.158;8.642;2024-03-23T15:38:38;21.60;46.60
16404;DHT22;8311;50.158;8.642;2024-03-23T15:41:30;21.60;46.60
16404;DHT22;8311;50.158;8.642;2024-03-23T15:44:21;21.60;46.60
16404;DHT22;8311;50.158;8.642;2024-03-23T15:47:13;21.50;46.50
16404;DHT22;8311;50.158;8.642;2024-03-23T15:50:08;21.50;46.60
16404;DHT22;8311;50.158;8.642;2024-03-23T15:52:59;21.60;46.60
16404;DHT22;8311;50.158;8.642;2024-03-23T15:55:53;21.60;46.60
16404;DHT22;8311;50.158;8.642;2024-03-23T15:58:44;21.60;46.60
16404;DHT22;8311;50.158;8.642;2024-03-23T16:01:37;21.60;46.90
16404;DHT22;8311;50.158;8.642;2024-03-23T16:04:30;21.50;46.50
16404;DHT22;8311;50.158;8.642;2024-03-23T16:07:23;21.50;46.50
16404;DHT22;8311;50.158;8.642;2024-03-23T16:10:13;21.60;46.60
16404;DHT22;8311;50.158;8.642;2024-03-23T16:13:06;21.50;46.50
16404;DHT22;8311;50.158;8.642;2024-03-23T16:15:57;21.50;46.60
16404;DHT22;8311;50.158;8.642;2024-03-23T16:18:49;21.50;46.50
16404;DHT22;8311;50.158;8.642;2024-03-23T16:21:40;21.50;46.50
16404;DHT22;8311;50.158;8.642;2024-03-23T16:24:34;21.50;46.50
16404;DHT22;8311;50.158;8.642;2024-03-23T16:27:26;21.50;46.50
16404;DHT22;8311;50.158;8.642;2024-03-23T16:30:18;21.50;46.60
16404;DHT22;8311;50.158;8.642;2024-03-23T16:33:10;21.50;46.60
16404;DHT22;8311;50.158;8.642;2024-03-23T16:36:03;21.50;46.60
16404;DHT22;8311;50.158;8.642;2024-03-23T16:38:55;21.50;46.60
16404;DHT22;8311;50.158;8.642;2024-03-23T16:41:48;21.50;46.60
16404;DHT22;8311;50.158;8.642;2024-03-23T16:44:41;21.40;46.60
16404;DHT22;8311;50.158;8.642;2024-03-23T16:47:32;21.40;46.60
16404;DHT22;8311;50.158;8.642;2024-03-23T16:50:25;21.40;46.60
16404;DHT22;8311;50.158;8.642;2024-03-23T16:53:16;21.40;46.60
16404;DHT22;8311;50.158;8.642;2024-03-23T16:56:08;21.40;46.60
16404;DHT22;8311;50.158;8.642;2024-03-23T16:59:02;21.40;46.60
16404;DHT22;8311;50.158;8.642;2024-03-23T17:01:52;21.40;46.60
16404;DHT22;8311;50.158;8.642;2024-03-23T17:04:45;21.40;46.60
16404;DHT22;8311;50.158;8.642;2024-03-23T17:07:36;21.40;46.60
16404;DHT22;8311;50.158;8.642;2024-03-23T17:10:28;21.40;46.60
16404;DHT22;8311;50.158;8.642;2024-03-23T17:13:19;21.40;46.60
16404;DHT22;8311;50.158;8.642;2024-03-23T17:16:12;21.40;46.60
16404;DHT22;8311;50.158;8.642;2024-03-23T17:19:03;21.40;46.60
16404;DHT22;8311;50.158;8.642;2024-03-23T17:21:56;21.40;46.60
16404;DHT22;8311;50.158;8.642;2024-03-23T17:24:51;21.40;46.60
16404;DHT22;8311;50.158;8.642;2024-03-23T17:27:43;21.40;47.20
16404;DHT22;8311;50.158;8.642;2024-03-23T17:30:34;21.40;46.60
16404;DHT22;8311;50.158;8.642;2024-03-23T17:33:28;21.40;46.70
16404;DHT22;8311;50.158;8.642;2024-03-23T17:36:20;21.40;46.70
16404;DHT22;8311;50.158;8.642;2024-03-23T17:39:17;21.40;46.60
16404;DHT22;8311;50.158;8.642;2024-03-23T17:42:09;21.40;46.70
16404;DHT22;8311;50.158;8.642;2024-03-23T17:45:00;21.40;46.70
16404;DHT22;8311;50.158;8.642;2024-03-23T17:47:52;21.40;46.70
16404;DHT22;8311;50.158;8.642;2024-03-23T17:50:45;21.40;46.70
16404;DHT22;8311;50.158;8.642;2024-03-23T17:53:40;21.40;46.70
16404;DHT22;8311;50.158;8.642;2024-03-23T17:56:32;21.30;46.60
16404;DHT22;8311;50.158;8.642;2024-03-23T17:59:22;21.30;46.60
16404;DHT22;8311;50.158;8.642;2024-03-23T18:02:15;21.40;46.70
16404;DHT22;8311;50.158;8.642;2024-03-23T18:05:06;21.40;46.70
16404;DHT22;8311;50.158;8.642;2024-03-23T18:08:00;21.30;46.60
16404;DHT22;8311;50.158;8.642;2024-03-23T18:10:52;21.30;46.60
16404;DHT22;8311;50.158;8.642;2024-03-23T18:13:45;21.30;46.60
16404;DHT22;8311;50.158;8.642;2024-03-23T18:16:35;21.30;46.60
16404;DHT22;8311;50.158;8.642;2024-03-23T18:19:28;21.30;46.60
16404;DHT22;8311;50.158;8.642;2024-03-23T18:22:18;21.30;46.60
16404;DHT22;8311;50.158;8.642;2024-03-23T18:25:12;21.30;46.60
16404;DHT22;8311;50.158;8.642;2024-03-23T18:28:03;21.30;46.60
16404;DHT22;8311;50.158;8.642;2024-03-23T18:30:56;21.30;46.60
16404;DHT22;8311;50.158;8.642;2024-03-23T18:33:48;21.30;46.60
16404;DHT22;8311;50.158;8.642;2024-03-23T18:36:39;21.30;46.60
16404;DHT22;8311;50.158;8.642;2024-03-23T18:39:31;21.30;46.60
16404;DHT22;8311;50.158;8.642;2024-03-23T18:42:24;21.30;46.60
16404;DHT22;8311;50.158;8.642;2024-03-23T18:45:16;21.30;46.50
16404;DHT22;8311;50.158;8.642;2024-03-23T18:48:07;21.30;46.50
16404;DHT22;8311;50.158;8.642;2024-03-23T18:51:02;21.30;46.60
16404;DHT22;8311;50.158;8.642;2024-03-23T18:53:54;21.30;46.50
16404;DHT22;8311;50.158;8.642;2024-03-23T18:56:50;21.30;46.50
16404;DHT22;8311;50.158;8.642;2024-03-23T18:59:43;21.30;46.50
16404;DHT22;8311;50.158;8.642;2024-03-23T19:02:36;21.30;46.50
16404;DHT22;8311;50.158;8.642;2024-03-23T19:05:27;21.30;46.40
16404;DHT22;8311;50.158;8.642;2024-03-23T19:08:19;21.30;46.50
16404;DHT22;8311;50.158;8.642;2024-03-23T19:11:09;21.30;46.50
16404;DHT22;8311;50.158;8.642;2024-03-23T19:14:02;21.30;46.50
16404;DHT22;8311;50.158;8.642;2024-03-23T19:16:54;21.30;46.40
16404;DHT22;8311;50.158;8.642;2024-03-23T19:19:46;21.30;46.50